createdAt,value
2018-09-03T00:00:33.931Z,98.18
2018-09-03T00:03:36.172Z,99.46
2018-09-03T00:06:38.584Z,99.27
2018-09-03T00:09:41.715Z,100.00
2018-09-03T00:12:44.027Z,100.00
2018-09-03T00:15:46.374Z,100.00
2018-09-03T00:18:48.580Z,100.00
2018-09-03T00:21:50.863Z,100.00
2018-09-03T00:24:53.151Z,100.00
2018-09-03T00:27:55.361Z,100.00
2018-09-03T00:31:03.299Z,100.00
2018-09-03T00:34:11.033Z,100.00
2018-09-03T00:37:18.818Z,100.00
2018-09-03T00:40:26.573Z,100.00
2018-09-03T00:44:34.926Z,100.00
2018-09-03T00:47:37.185Z,100.00
2018-09-03T00:50:40.793Z,100.00
2018-09-03T00:53:43.029Z,100.00
2018-09-03T00:56:45.237Z,100.00
2018-09-03T00:59:47.483Z,100.00
2018-09-03T01:02:49.679Z,100.00
2018-09-03T01:05:51.975Z,100.00
2018-09-03T01:08:54.147Z,100.00
2018-09-03T01:11:56.360Z,100.00
2018-09-03T01:14:58.607Z,100.00
2018-09-03T01:18:01.810Z,99.85
2018-09-03T01:21:03.995Z,100.00
2018-09-03T01:24:06.484Z,100.00
2018-09-03T01:27:08.679Z,100.00
2018-09-03T01:30:10.986Z,100.00
2018-09-03T01:33:13.182Z,100.00
2018-09-03T01:36:15.668Z,100.00
2018-09-03T01:39:18.031Z,100.00
2018-09-03T01:42:20.263Z,100.00
2018-09-03T01:45:22.458Z,100.00
2018-09-03T01:48:24.639Z,100.00
2018-09-03T01:51:26.832Z,100.00
2018-09-03T01:54:29.086Z,100.00
2018-09-03T01:57:31.306Z,100.00
2018-09-03T02:00:33.452Z,100.00
2018-09-03T02:03:35.834Z,100.00
2018-09-03T02:06:38.128Z,100.00
2018-09-03T02:09:40.344Z,100.00
2018-09-03T02:12:42.552Z,100.00
2018-09-03T02:15:44.824Z,100.00
2018-09-03T02:18:47.053Z,100.00
2018-09-03T02:21:49.243Z,100.00
2018-09-03T02:24:51.389Z,100.00
2018-09-03T02:27:53.823Z,100.00
2018-09-03T02:30:56.068Z,100.00
2018-09-03T02:33:58.317Z,100.00
2018-09-03T02:37:00.511Z,100.00
2018-09-03T02:40:02.871Z,100.00
2018-09-03T02:43:05.133Z,100.00
2018-09-03T02:46:07.324Z,100.00
2018-09-03T02:49:09.564Z,100.00
2018-09-03T02:52:11.894Z,100.00
2018-09-03T02:55:14.098Z,100.00
2018-09-03T02:58:16.416Z,100.00
2018-09-03T03:01:18.660Z,100.00
2018-09-03T03:04:20.830Z,100.00
2018-09-03T03:07:23.134Z,100.00
2018-09-03T03:10:25.438Z,100.00
2018-09-03T03:13:27.682Z,100.00
2018-09-03T03:16:30.142Z,100.00
2018-09-03T03:19:32.526Z,100.00
2018-09-03T03:22:34.846Z,100.00
2018-09-03T03:25:37.016Z,100.00
2018-09-03T03:28:39.245Z,100.00
2018-09-03T03:31:41.582Z,100.00
2018-09-03T03:34:43.743Z,100.00
2018-09-03T03:37:47.920Z,100.00
2018-09-03T03:40:50.131Z,100.00
2018-09-03T03:43:52.286Z,100.00
2018-09-03T03:46:54.540Z,100.00
2018-09-03T03:49:56.740Z,100.00
2018-09-03T03:52:59.024Z,100.00
2018-09-03T03:56:01.170Z,100.00
2018-09-03T03:59:03.444Z,100.00
2018-09-03T04:02:05.827Z,100.00
2018-09-03T04:05:08.051Z,100.00
2018-09-03T04:08:10.229Z,100.00
2018-09-03T04:11:12.386Z,100.00
2018-09-03T04:14:14.545Z,100.00
2018-09-03T04:17:16.795Z,100.00
2018-09-03T04:20:18.941Z,100.00
2018-09-03T04:23:21.309Z,100.00
2018-09-03T04:26:23.420Z,100.00
2018-09-03T04:29:25.684Z,100.00
2018-09-03T04:32:27.954Z,100.00
2018-09-03T04:35:30.821Z,100.00
2018-09-03T04:38:33.064Z,100.00
2018-09-03T04:41:35.333Z,100.00
2018-09-03T04:44:37.544Z,100.00
2018-09-03T04:47:39.781Z,100.00
2018-09-03T04:50:41.910Z,100.00
2018-09-03T04:53:44.203Z,100.00
2018-09-03T04:56:46.375Z,100.00
2018-09-03T04:59:48.593Z,100.00
2018-09-03T05:02:50.769Z,100.00
2018-09-03T05:05:53.036Z,100.00
2018-09-03T05:08:55.229Z,100.00
2018-09-03T05:11:57.475Z,100.00
2018-09-03T05:14:59.642Z,100.00
2018-09-03T05:18:01.875Z,100.00
2018-09-03T05:21:04.154Z,100.00
2018-09-03T05:24:06.333Z,100.00
2018-09-03T05:27:08.540Z,100.00
2018-09-03T05:30:10.832Z,100.00
2018-09-03T05:33:13.144Z,100.00
2018-09-03T05:36:15.611Z,100.00
2018-09-03T05:39:17.856Z,100.00
2018-09-03T05:42:20.081Z,100.00
2018-09-03T05:45:22.279Z,100.00
2018-09-03T05:48:24.548Z,100.00
2018-09-03T05:51:26.776Z,100.00
2018-09-03T05:54:28.923Z,100.00
2018-09-03T05:57:31.172Z,99.53
2018-09-03T06:00:33.469Z,99.70
2018-09-03T06:03:35.681Z,99.79
2018-09-03T06:06:37.951Z,99.55
2018-09-03T06:09:40.161Z,99.93
2018-09-03T06:12:42.520Z,100.00
2018-09-03T06:15:44.934Z,100.00
2018-09-03T06:18:48.187Z,99.71
2018-09-03T06:21:50.464Z,99.79
2018-09-03T06:24:52.895Z,99.89
2018-09-03T06:27:55.235Z,99.73
2018-09-03T06:30:57.460Z,99.25
2018-09-03T06:33:59.634Z,99.24
2018-09-03T06:37:01.825Z,98.28
2018-09-03T06:40:03.995Z,97.51
2018-09-03T06:43:06.468Z,97.20
2018-09-03T06:46:08.903Z,96.35
2018-09-03T06:49:11.093Z,96.21
2018-09-03T06:52:13.391Z,96.59
2018-09-03T06:55:15.554Z,96.60
2018-09-03T06:58:17.951Z,96.99
2018-09-03T07:01:20.213Z,97.32
2018-09-03T07:04:22.492Z,98.04
2018-09-03T07:07:24.623Z,97.24
2018-09-03T07:10:26.939Z,97.88
2018-09-03T07:13:29.147Z,98.03
2018-09-03T07:16:31.421Z,96.83
2018-09-03T07:19:33.611Z,96.62
2018-09-03T07:22:35.766Z,96.30
2018-09-03T07:25:37.988Z,95.20
2018-09-03T07:28:40.235Z,95.69
2018-09-03T07:31:42.496Z,94.22
2018-09-03T07:34:44.781Z,93.40
2018-09-03T07:37:47.008Z,91.36
2018-09-03T07:40:49.263Z,89.62
2018-09-03T07:43:51.463Z,90.65
2018-09-03T07:46:53.646Z,88.71
2018-09-03T07:49:55.807Z,87.61
2018-09-03T07:52:57.970Z,87.89
2018-09-03T07:56:00.187Z,89.05
2018-09-03T07:59:02.664Z,87.73
2018-09-03T08:02:05.215Z,89.80
2018-09-03T08:05:07.563Z,89.32
2018-09-03T08:08:09.751Z,88.64
2018-09-03T08:11:12.137Z,87.40
2018-09-03T08:14:14.409Z,87.51
2018-09-03T08:17:47.272Z,87.09
2018-09-03T08:20:49.503Z,86.70
2018-09-03T08:23:51.633Z,85.16
2018-09-03T08:26:53.850Z,86.44
2018-09-03T08:29:56.041Z,86.05
2018-09-03T08:32:58.215Z,83.99
2018-09-03T08:36:00.440Z,82.36
2018-09-03T08:39:04.317Z,81.13
2018-09-03T08:42:07.324Z,82.78
2018-09-03T08:45:09.771Z,82.07
2018-09-03T08:48:11.955Z,80.66
2018-09-03T08:51:14.144Z,81.91
2018-09-03T08:54:16.291Z,81.71
2018-09-03T08:57:18.536Z,82.63
2018-09-03T09:00:20.796Z,84.73
2018-09-03T09:03:28.604Z,84.59
2018-09-03T09:06:30.803Z,85.03
2018-09-03T09:09:33.111Z,83.91
2018-09-03T09:12:35.348Z,83.82
2018-09-03T09:15:37.484Z,84.59
2018-09-03T09:18:39.802Z,84.73
2018-09-03T09:21:42.071Z,83.83
2018-09-03T09:24:44.283Z,82.82
2018-09-03T09:27:46.494Z,81.23
2018-09-03T09:30:48.722Z,81.06
2018-09-03T09:33:50.973Z,81.09
2018-09-03T09:36:53.407Z,82.83
2018-09-03T09:39:55.628Z,80.96
2018-09-03T09:42:58.272Z,80.31
2018-09-03T09:46:01.440Z,81.26
2018-09-03T09:49:03.631Z,82.19
2018-09-03T09:52:05.892Z,81.30
2018-09-03T09:55:08.132Z,81.97
2018-09-03T09:58:10.329Z,81.96
2018-09-03T10:01:18.005Z,82.44
2018-09-03T10:04:22.176Z,83.50
2018-09-03T10:07:24.433Z,84.34
2018-09-03T10:10:26.780Z,82.93
2018-09-03T10:13:29.104Z,81.69
2018-09-03T10:16:31.370Z,80.96
2018-09-03T10:19:33.563Z,82.45
2018-09-03T10:22:35.768Z,82.79
2018-09-03T10:25:37.948Z,82.92
2018-09-03T10:28:40.209Z,83.13
2018-09-03T10:31:42.413Z,83.55
2018-09-03T10:34:44.719Z,82.94
2018-09-03T10:37:47.108Z,81.97
2018-09-03T10:40:49.295Z,83.22
2018-09-03T10:43:51.446Z,83.16
2018-09-03T10:46:53.731Z,82.85
2018-09-03T10:49:56.439Z,81.72
2018-09-03T10:52:58.652Z,81.87
2018-09-03T10:56:00.931Z,80.82
2018-09-03T10:59:03.099Z,77.11
2018-09-03T11:02:05.452Z,75.20
2018-09-03T11:05:07.620Z,74.17
2018-09-03T11:08:18.965Z,71.22
2018-09-03T11:11:21.228Z,69.87
2018-09-03T11:14:23.493Z,73.72
2018-09-03T11:17:25.988Z,73.85
2018-09-03T11:20:29.243Z,74.94
2018-09-03T11:23:32.587Z,77.40
2018-09-03T11:26:34.768Z,75.55
2018-09-03T11:29:37.912Z,77.56
2018-09-03T11:32:44.668Z,77.86
2018-09-03T11:35:46.922Z,78.89
2018-09-03T11:38:49.165Z,77.32
2018-09-03T11:41:51.311Z,78.46
2018-09-03T11:44:53.490Z,79.72
2018-09-03T11:47:55.926Z,80.23
2018-09-03T11:50:58.231Z,79.80
2018-09-03T11:54:00.480Z,79.79
2018-09-03T11:57:02.803Z,80.68
2018-09-03T12:00:06.169Z,79.46
2018-09-03T12:03:08.416Z,81.79
2018-09-03T12:06:10.821Z,82.83
2018-09-03T12:09:12.991Z,83.51
2018-09-03T12:12:15.417Z,84.60
2018-09-03T12:15:24.620Z,85.23
2018-09-03T12:18:26.803Z,84.21
2018-09-03T12:21:29.024Z,83.42
2018-09-03T12:24:31.300Z,83.48
2018-09-03T12:27:33.536Z,81.55
2018-09-03T12:30:35.915Z,81.17
2018-09-03T12:33:38.193Z,80.77
2018-09-03T12:36:40.587Z,80.92
2018-09-03T12:39:42.817Z,80.44
2018-09-03T12:42:45.010Z,78.91
2018-09-03T12:45:53.838Z,78.94
2018-09-03T12:48:56.236Z,78.96
2018-09-03T12:51:58.638Z,78.83
2018-09-03T12:55:00.890Z,79.37
2018-09-03T12:58:03.744Z,79.73
2018-09-03T13:01:06.106Z,80.83
2018-09-03T13:04:08.367Z,81.74
2018-09-03T13:07:10.640Z,80.99
2018-09-03T13:10:12.977Z,82.31
2018-09-03T13:13:15.180Z,82.29
2018-09-03T13:16:17.455Z,84.73
2018-09-03T13:19:19.632Z,85.86
2018-09-03T13:22:21.806Z,84.94
2018-09-03T13:25:24.072Z,86.68
2018-09-03T13:28:26.302Z,87.79
2018-09-03T13:31:28.439Z,90.10
2018-09-03T13:34:30.741Z,90.40
2018-09-03T13:37:33.135Z,87.68
2018-09-03T13:40:35.407Z,84.91
2018-09-03T13:43:37.892Z,84.97
2018-09-03T13:46:40.141Z,83.52
2018-09-03T13:49:42.322Z,82.76
2018-09-03T13:55:55.624Z,81.87
2018-09-03T13:58:57.850Z,83.04
2018-09-03T14:02:00.098Z,82.33
2018-09-03T14:05:02.326Z,81.71
2018-09-03T14:08:04.556Z,80.05
2018-09-03T14:11:06.803Z,80.43
2018-09-03T14:14:09.143Z,79.48
2018-09-03T14:17:11.455Z,78.54
2018-09-03T14:20:13.666Z,78.08
2018-09-03T14:23:15.984Z,79.61
2018-09-03T14:26:18.175Z,80.87
2018-09-03T14:29:20.328Z,82.42
2018-09-03T14:32:22.687Z,82.95
2018-09-03T14:35:25.015Z,84.46
2018-09-03T14:38:27.356Z,84.30
2018-09-03T14:41:29.596Z,84.32
2018-09-03T14:44:31.828Z,85.33
2018-09-03T14:47:34.048Z,83.80
2018-09-03T14:50:36.259Z,84.30
2018-09-03T14:53:38.796Z,84.06
2018-09-03T14:56:41.107Z,82.83
2018-09-03T14:59:43.432Z,81.86
2018-09-03T15:02:45.871Z,80.81
2018-09-03T15:05:48.228Z,80.05
2018-09-03T15:08:50.417Z,79.56
2018-09-03T15:11:52.650Z,81.04
2018-09-03T15:14:54.959Z,81.38
2018-09-03T15:17:57.170Z,81.69
2018-09-03T15:20:59.471Z,82.43
2018-09-03T15:24:02.035Z,82.16
2018-09-03T15:27:04.451Z,82.50
2018-09-03T15:30:06.792Z,83.79
2018-09-03T15:33:09.012Z,84.17
2018-09-03T15:36:11.447Z,83.80
2018-09-03T15:39:13.737Z,83.66
2018-09-03T15:42:16.006Z,85.23
2018-09-03T15:45:18.308Z,84.72
2018-09-03T15:48:20.679Z,84.70
2018-09-03T15:51:23.117Z,84.34
2018-09-03T15:54:25.336Z,83.77
2018-09-03T15:57:27.670Z,83.40
2018-09-03T16:00:30.065Z,83.59
2018-09-03T16:03:32.227Z,84.52
2018-09-03T16:06:34.516Z,85.56
2018-09-03T16:09:36.650Z,86.37
2018-09-03T16:12:38.864Z,86.67
2018-09-03T16:15:41.154Z,87.69
2018-09-03T16:18:43.484Z,87.79
2018-09-03T16:21:45.681Z,87.87
2018-09-03T16:24:47.939Z,87.72
2018-09-03T16:27:50.138Z,87.60
2018-09-03T16:30:52.263Z,87.33
2018-09-03T16:33:54.522Z,87.80
2018-09-03T16:36:56.723Z,88.01
2018-09-03T16:39:59.049Z,88.14
2018-09-03T16:43:01.355Z,88.18
2018-09-03T16:46:03.650Z,89.50
2018-09-03T16:49:06.031Z,89.40
2018-09-03T16:52:08.187Z,89.42
2018-09-03T16:55:10.425Z,89.51
2018-09-03T16:58:12.625Z,89.42
2018-09-03T17:01:15.115Z,89.75
2018-09-03T17:04:17.293Z,90.11
2018-09-03T17:07:19.718Z,90.43
2018-09-03T17:10:21.893Z,90.15
2018-09-03T17:13:24.063Z,90.68
2018-09-03T17:16:26.229Z,91.13
2018-09-03T17:19:28.453Z,92.26
2018-09-03T17:22:30.724Z,92.64
2018-09-03T17:25:32.938Z,92.92
2018-09-03T17:28:35.129Z,92.90
2018-09-03T17:31:37.392Z,93.30
2018-09-03T17:34:39.672Z,93.45
2018-09-03T17:37:41.888Z,94.08
2018-09-03T17:40:44.092Z,94.88
2018-09-03T17:43:46.271Z,95.21
2018-09-03T17:46:48.472Z,94.98
2018-09-03T17:49:50.813Z,96.05
2018-09-03T17:52:53.019Z,95.74
2018-09-03T17:55:55.279Z,95.55
2018-09-03T17:58:57.570Z,95.62
2018-09-03T18:01:59.814Z,96.04
2018-09-03T18:05:03.613Z,96.13
2018-09-03T18:08:05.927Z,96.83
2018-09-03T18:11:08.265Z,96.64
2018-09-03T18:14:10.684Z,97.35
2018-09-03T18:17:13.172Z,97.09
2018-09-03T18:20:15.443Z,97.18
2018-09-03T18:23:17.711Z,97.55
2018-09-03T18:26:19.997Z,98.03
2018-09-03T18:29:22.223Z,97.98
2018-09-03T18:32:24.804Z,98.55
2018-09-03T18:35:27.284Z,98.40
2018-09-03T18:38:29.540Z,98.39
2018-09-03T18:41:31.764Z,98.39
2018-09-03T18:44:33.951Z,99.35
2018-09-03T18:47:36.167Z,98.92
2018-09-03T18:50:39.907Z,98.88
2018-09-03T18:53:42.104Z,99.55
2018-09-03T18:56:44.324Z,99.73
2018-09-03T18:59:46.654Z,99.14
2018-09-03T19:02:48.824Z,99.20
2018-09-03T19:05:51.135Z,99.32
2018-09-03T19:08:53.364Z,99.65
2018-09-03T19:11:55.560Z,99.68
2018-09-03T19:14:57.728Z,99.67
2018-09-03T19:17:59.977Z,99.96
2018-09-03T19:21:02.444Z,100.00
2018-09-03T19:24:04.630Z,100.00
2018-09-03T19:27:07.130Z,100.00
2018-09-03T19:30:09.472Z,100.00
2018-09-03T19:33:12.588Z,100.00
2018-09-03T19:36:14.851Z,100.00
2018-09-03T19:39:17.138Z,100.00
2018-09-03T19:42:19.412Z,100.00
2018-09-03T19:45:21.827Z,100.00
2018-09-03T19:48:24.040Z,100.00
2018-09-03T19:51:26.445Z,100.00
2018-09-03T19:54:28.759Z,100.00
2018-09-03T19:57:30.994Z,100.00
2018-09-03T20:00:33.341Z,100.00
2018-09-03T20:03:35.658Z,100.00
2018-09-03T20:06:37.959Z,100.00
2018-09-03T20:09:40.480Z,100.00
2018-09-03T20:12:42.745Z,100.00
2018-09-03T20:15:44.981Z,100.00
2018-09-03T20:18:47.172Z,100.00
2018-09-03T20:21:49.608Z,100.00
2018-09-03T20:24:51.865Z,100.00
2018-09-03T20:27:54.100Z,100.00
2018-09-03T20:30:56.401Z,100.00
2018-09-03T20:33:58.698Z,100.00
2018-09-03T20:37:01.195Z,100.00
2018-09-03T20:40:03.537Z,100.00
2018-09-03T20:43:05.941Z,100.00
2018-09-03T20:46:08.089Z,100.00
2018-09-03T20:49:10.292Z,100.00
2018-09-03T20:52:12.440Z,100.00
2018-09-03T20:55:14.847Z,100.00
2018-09-03T20:58:17.277Z,100.00
2018-09-03T21:01:19.685Z,100.00
2018-09-03T21:04:21.956Z,100.00
2018-09-03T21:07:24.196Z,100.00
2018-09-03T21:10:26.423Z,100.00
2018-09-03T21:13:28.728Z,100.00
2018-09-03T21:16:30.948Z,100.00
2018-09-03T21:19:33.143Z,100.00
2018-09-03T21:22:35.507Z,100.00
2018-09-03T21:25:37.744Z,100.00
2018-09-03T21:28:39.939Z,100.00
2018-09-03T21:31:42.062Z,100.00
2018-09-03T21:34:44.271Z,100.00
2018-09-03T21:37:46.510Z,100.00
2018-09-03T21:40:48.720Z,100.00
2018-09-03T21:43:51.031Z,100.00
2018-09-03T21:46:53.520Z,100.00
2018-09-03T21:49:55.682Z,100.00
2018-09-03T21:52:57.970Z,100.00
2018-09-03T21:56:00.750Z,100.00
2018-09-03T21:59:03.028Z,100.00
2018-09-03T22:02:07.778Z,100.00
2018-09-03T22:05:09.984Z,100.00
2018-09-03T22:08:12.182Z,100.00
2018-09-03T22:11:14.554Z,100.00
2018-09-03T22:14:16.734Z,100.00
2018-09-03T22:17:18.980Z,100.00
2018-09-03T22:20:21.260Z,100.00
2018-09-03T22:23:23.382Z,100.00
2018-09-03T22:26:25.685Z,100.00
2018-09-03T22:29:29.059Z,100.00
2018-09-03T22:32:31.341Z,100.00
2018-09-03T22:35:33.893Z,100.00
2018-09-03T22:38:36.213Z,100.00
2018-09-03T22:41:38.548Z,100.00
2018-09-03T22:44:40.762Z,100.00
2018-09-03T22:47:42.983Z,100.00
2018-09-03T22:50:45.154Z,100.00
2018-09-03T22:53:47.339Z,100.00
2018-09-03T22:56:49.498Z,100.00
2018-09-03T22:59:51.863Z,100.00
2018-09-03T23:02:54.027Z,100.00
2018-09-03T23:05:56.243Z,100.00
2018-09-03T23:08:58.527Z,100.00
2018-09-03T23:12:00.706Z,100.00
2018-09-03T23:15:02.928Z,100.00
2018-09-03T23:18:05.154Z,100.00
2018-09-03T23:21:07.447Z,100.00
2018-09-03T23:24:09.639Z,100.00
2018-09-03T23:27:11.826Z,100.00
2018-09-03T23:30:14.112Z,100.00
2018-09-03T23:33:16.244Z,100.00
2018-09-03T23:36:18.439Z,100.00
2018-09-03T23:39:20.835Z,100.00
2018-09-03T23:42:23.083Z,100.00
2018-09-03T23:45:25.345Z,100.00
2018-09-03T23:48:27.559Z,100.00
2018-09-03T23:51:29.847Z,100.00
2018-09-03T23:54:32.052Z,100.00
2018-09-03T23:57:34.314Z,100.00
